createdAt,value
2022-11-25T00:01:30.353Z,80.00
2022-11-25T00:03:58.662Z,80.10
2022-11-25T00:06:34.351Z,79.90
2022-11-25T00:09:06.063Z,79.80
2022-11-25T00:11:37.904Z,79.60
2022-11-25T00:14:06.047Z,79.70
2022-11-25T00:16:33.754Z,79.80
2022-11-25T00:19:01.231Z,79.80
2022-11-25T00:21:31.972Z,79.60
2022-11-25T00:24:04.369Z,79.60
2022-11-25T00:26:32.972Z,79.50
2022-11-25T00:29:03.922Z,79.40
2022-11-25T00:31:37.527Z,79.20
2022-11-25T00:34:07.186Z,79.10
2022-11-25T00:36:37.527Z,79.10
2022-11-25T00:39:11.695Z,79.10
2022-11-25T00:41:58.088Z,79.10
2022-11-25T00:44:39.588Z,79.20
2022-11-25T00:47:17.726Z,79.10
2022-11-25T00:49:50.386Z,78.90
2022-11-25T00:52:21.049Z,79.00
2022-11-25T00:54:49.636Z,78.80
2022-11-25T00:57:22.081Z,78.80
2022-11-25T00:59:49.899Z,78.90
2022-11-25T01:02:19.003Z,79.00
2022-11-25T01:04:46.786Z,79.10
2022-11-25T01:07:16.816Z,79.40
2022-11-25T01:09:44.227Z,79.60
2022-11-25T01:12:11.874Z,79.80
2022-11-25T01:14:39.690Z,80.20
2022-11-25T01:17:07.413Z,80.80
2022-11-25T01:19:39.854Z,81.60
2022-11-25T01:22:08.640Z,82.00
2022-11-25T01:24:36.389Z,82.10
2022-11-25T01:27:03.803Z,82.20
2022-11-25T01:29:31.118Z,82.30
2022-11-25T01:31:58.723Z,81.40
2022-11-25T01:34:27.965Z,81.20
2022-11-25T01:36:58.231Z,81.60
2022-11-25T01:39:32.115Z,81.90
2022-11-25T01:42:01.542Z,82.10
2022-11-25T01:44:31.774Z,82.10
2022-11-25T01:47:16.159Z,82.60
2022-11-25T01:49:49.323Z,82.90
2022-11-25T01:52:31.685Z,82.90
2022-11-25T01:55:12.354Z,83.00
2022-11-25T01:57:55.369Z,82.90
2022-11-25T02:00:25.483Z,82.70
2022-11-25T02:02:54.718Z,82.60
2022-11-25T02:05:33.945Z,82.60
2022-11-25T02:08:01.870Z,82.50
2022-11-25T02:10:32.628Z,82.50
2022-11-25T02:13:00.342Z,82.50
2022-11-25T02:15:29.371Z,82.40
2022-11-25T02:17:56.786Z,82.40
2022-11-25T02:20:24.662Z,82.40
2022-11-25T02:23:26.393Z,82.30
2022-11-25T02:25:55.395Z,82.40
2022-11-25T02:28:26.207Z,82.30
2022-11-25T02:30:53.885Z,82.20
2022-11-25T02:33:21.466Z,82.10
2022-11-25T02:35:59.798Z,82.10
2022-11-25T02:38:35.960Z,82.10
2022-11-25T02:41:06.001Z,82.00
2022-11-25T02:43:33.447Z,81.80
2022-11-25T02:46:05.562Z,81.70
2022-11-25T02:49:06.692Z,81.50
2022-11-25T02:51:27.295Z,81.40
2022-11-25T02:53:56.602Z,81.30
2022-11-25T02:56:29.638Z,81.20
2022-11-25T02:58:56.935Z,81.30
2022-11-25T03:01:26.816Z,81.30
2022-11-25T03:03:54.113Z,81.30
2022-11-25T03:06:21.481Z,81.30
2022-11-25T03:08:48.923Z,81.30
2022-11-25T03:11:16.164Z,81.30
2022-11-25T03:13:43.848Z,81.20
2022-11-25T03:16:11.366Z,81.20
2022-11-25T03:18:38.922Z,81.20
2022-11-25T03:21:07.344Z,81.20
2022-11-25T03:23:35.501Z,81.30
2022-11-25T03:26:07.064Z,81.30
2022-11-25T03:28:34.705Z,81.20
2022-11-25T03:31:02.433Z,81.20
2022-11-25T03:33:30.365Z,81.20
2022-11-25T03:35:57.729Z,81.20
2022-11-25T03:38:25.126Z,81.10
2022-11-25T03:40:52.650Z,81.00
2022-11-25T03:43:19.978Z,81.00
2022-11-25T03:45:50.248Z,80.90
2022-11-25T03:48:17.983Z,81.00
2022-11-25T03:50:45.457Z,81.00
2022-11-25T03:53:12.706Z,80.90
2022-11-25T03:55:40.097Z,81.00
2022-11-25T03:58:07.463Z,81.10
2022-11-25T04:00:35.694Z,81.20
2022-11-25T04:03:04.451Z,81.40
2022-11-25T04:05:33.199Z,81.50
2022-11-25T04:08:05.559Z,81.60
2022-11-25T04:10:34.682Z,81.60
2022-11-25T04:13:02.423Z,82.40
2022-11-25T04:15:36.323Z,81.60
2022-11-25T04:18:03.883Z,81.70
2022-11-25T04:20:32.872Z,81.70
2022-11-25T04:23:06.214Z,81.60
2022-11-25T04:25:36.666Z,81.60
2022-11-25T04:28:12.302Z,81.60
2022-11-25T04:30:39.957Z,81.50
2022-11-25T04:33:07.747Z,81.60
2022-11-25T04:35:35.602Z,81.60
2022-11-25T04:38:03.365Z,81.50
2022-11-25T04:40:31.332Z,81.40
2022-11-25T04:43:12.298Z,81.30
2022-11-25T04:46:18.458Z,81.30
2022-11-25T04:48:51.612Z,81.20
2022-11-25T04:51:20.761Z,81.20
2022-11-25T04:53:51.989Z,81.20
2022-11-25T04:56:20.766Z,81.90
2022-11-25T04:59:23.885Z,81.10
2022-11-25T05:01:51.341Z,81.10
2022-11-25T05:04:29.041Z,81.10
2022-11-25T05:06:56.547Z,80.90
2022-11-25T05:09:25.418Z,80.90
2022-11-25T05:12:10.770Z,80.90
2022-11-25T05:14:38.520Z,80.90
2022-11-25T05:17:07.440Z,80.90
2022-11-25T05:19:36.538Z,81.00
2022-11-25T05:22:04.410Z,81.00
2022-11-25T05:24:32.246Z,81.00
2022-11-25T05:26:59.740Z,81.00
2022-11-25T05:29:27.637Z,80.80
2022-11-25T05:31:55.367Z,80.80
2022-11-25T05:34:22.733Z,80.80
2022-11-25T05:36:51.497Z,80.70
2022-11-25T05:39:19.881Z,80.70
2022-11-25T05:42:16.090Z,80.80
2022-11-25T05:44:43.479Z,80.60
2022-11-25T05:47:10.875Z,80.50
2022-11-25T05:49:39.726Z,80.40
2022-11-25T05:52:07.926Z,80.50
2022-11-25T05:54:43.450Z,80.40
2022-11-25T05:57:11.724Z,80.30
2022-11-25T05:59:47.357Z,81.10
2022-11-25T06:02:21.458Z,80.30
2022-11-25T06:04:49.154Z,80.30
2022-11-25T06:07:17.332Z,80.10
2022-11-25T06:09:45.263Z,80.10
2022-11-25T06:12:12.683Z,80.10
2022-11-25T06:14:47.436Z,80.10
2022-11-25T06:17:15.072Z,80.10
2022-11-25T06:19:50.943Z,80.10
2022-11-25T06:22:18.386Z,80.10
2022-11-25T06:24:49.310Z,80.20
2022-11-25T06:27:22.814Z,80.30
2022-11-25T06:29:50.315Z,80.20
2022-11-25T06:32:17.728Z,80.20
2022-11-25T06:35:05.183Z,80.30
2022-11-25T06:37:53.094Z,80.40
2022-11-25T06:40:20.679Z,80.60
2022-11-25T06:42:48.101Z,80.70
2022-11-25T06:45:15.594Z,80.80
2022-11-25T06:47:43.380Z,80.90
2022-11-25T06:50:10.930Z,81.00
2022-11-25T06:52:38.415Z,81.10
2022-11-25T06:55:06.198Z,81.10
2022-11-25T06:57:33.613Z,81.10
2022-11-25T07:00:01.073Z,81.20
2022-11-25T07:02:28.527Z,81.30
2022-11-25T07:04:56.294Z,81.30
2022-11-25T07:07:23.768Z,81.30
2022-11-25T07:09:51.127Z,81.40
2022-11-25T07:12:18.522Z,81.40
2022-11-25T07:14:46.148Z,81.50
2022-11-25T07:17:13.468Z,81.60
2022-11-25T07:19:41.363Z,81.60
2022-11-25T07:22:08.807Z,81.60
2022-11-25T07:24:36.615Z,81.60
2022-11-25T07:27:06.775Z,81.60
2022-11-25T07:29:57.881Z,81.50
2022-11-25T07:32:23.029Z,81.50
2022-11-25T07:34:51.478Z,81.50
2022-11-25T07:37:18.910Z,81.50
2022-11-25T07:39:46.386Z,81.50
2022-11-25T07:42:13.594Z,81.60
2022-11-25T07:44:40.878Z,81.70
2022-11-25T07:47:35.331Z,81.70
2022-11-25T07:50:03.103Z,81.80
2022-11-25T07:52:30.524Z,81.80
2022-11-25T07:54:58.177Z,81.80
2022-11-25T07:57:25.517Z,82.80
2022-11-25T07:59:52.947Z,82.10
2022-11-25T08:02:21.399Z,82.20
2022-11-25T08:04:48.832Z,82.30
2022-11-25T08:07:16.301Z,82.10
2022-11-25T08:09:43.955Z,81.90
2022-11-25T08:12:11.336Z,81.90
2022-11-25T08:14:38.711Z,81.70
2022-11-25T08:17:06.125Z,81.70
2022-11-25T08:19:33.637Z,81.70
2022-11-25T08:22:01.024Z,81.60
2022-11-25T08:24:28.389Z,81.40
2022-11-25T08:26:58.678Z,81.10
2022-11-25T08:29:26.103Z,81.00
2022-11-25T08:31:54.390Z,81.10
2022-11-25T08:34:24.519Z,80.90
2022-11-25T08:36:57.450Z,80.80
2022-11-25T08:42:12.609Z,81.00
2022-11-25T08:44:40.551Z,80.80
2022-11-25T08:47:09.947Z,80.80
2022-11-25T08:49:41.750Z,80.40
2022-11-25T08:52:10.504Z,80.60
2022-11-25T08:54:38.353Z,80.70
2022-11-25T08:57:06.426Z,80.60
2022-11-25T08:59:34.053Z,80.30
2022-11-25T09:02:01.591Z,80.00
2022-11-25T09:04:29.136Z,79.90
2022-11-25T09:06:56.552Z,80.00
2022-11-25T09:09:24.210Z,79.80
2022-11-25T09:11:51.735Z,79.60
2022-11-25T09:14:19.267Z,79.50
2022-11-25T09:16:46.736Z,79.50
2022-11-25T09:19:14.145Z,79.40
2022-11-25T09:21:45.946Z,79.50
2022-11-25T09:24:13.499Z,79.40
2022-11-25T09:26:42.199Z,79.30
2022-11-25T09:29:12.069Z,79.50
2022-11-25T09:31:40.516Z,79.70
2022-11-25T09:34:09.869Z,79.70
2022-11-25T09:36:37.757Z,79.40
2022-11-25T09:39:05.790Z,79.20
2022-11-25T09:42:29.155Z,79.10
2022-11-25T09:46:05.994Z,78.70
2022-11-25T09:48:42.521Z,78.60
2022-11-25T09:51:34.518Z,78.40
2022-11-25T09:54:32.103Z,78.30
2022-11-25T09:57:12.827Z,77.50
2022-11-25T09:59:50.933Z,77.30
2022-11-25T10:02:27.888Z,77.10
2022-11-25T10:05:06.126Z,77.10
2022-11-25T10:07:43.045Z,77.10
2022-11-25T10:10:22.231Z,77.00
2022-11-25T10:12:51.246Z,77.40
2022-11-25T10:15:27.837Z,77.30
2022-11-25T10:18:03.113Z,77.30
2022-11-25T10:20:41.034Z,78.50
2022-11-25T10:23:26.461Z,78.10
2022-11-25T10:26:04.058Z,77.90
2022-11-25T10:28:34.259Z,77.60
2022-11-25T10:31:12.189Z,77.80
2022-11-25T10:33:54.082Z,77.00
2022-11-25T10:36:35.102Z,77.10
2022-11-25T10:39:05.542Z,77.20
2022-11-25T10:41:52.526Z,76.90
2022-11-25T10:44:40.340Z,76.70
2022-11-25T10:47:36.079Z,75.80
2022-11-25T10:50:25.387Z,75.90
2022-11-25T10:53:13.572Z,75.40
2022-11-25T10:56:01.135Z,74.70
2022-11-25T10:58:31.313Z,74.70
2022-11-25T11:01:14.568Z,74.30
2022-11-25T11:03:45.411Z,74.20
2022-11-25T11:06:51.750Z,74.00
2022-11-25T11:09:34.809Z,74.30
2022-11-25T11:12:23.000Z,74.60
2022-11-25T11:14:51.345Z,74.40
2022-11-25T11:17:36.848Z,74.70
2022-11-25T11:20:09.114Z,73.90
2022-11-25T11:22:44.971Z,73.80
2022-11-25T11:25:21.560Z,73.80
2022-11-25T11:27:49.451Z,73.40
2022-11-25T11:30:20.883Z,73.40
2022-11-25T11:33:05.675Z,73.40
2022-11-25T11:35:46.746Z,73.40
2022-11-25T11:38:34.386Z,73.30
2022-11-25T11:41:15.861Z,73.10
2022-11-25T11:43:58.051Z,73.20
2022-11-25T11:46:36.636Z,73.10
2022-11-25T11:49:44.880Z,72.50
2022-11-25T11:52:35.231Z,72.60
2022-11-25T11:55:40.246Z,72.00
2022-11-25T11:58:25.795Z,72.80
2022-11-25T12:01:11.408Z,72.70
2022-11-25T12:03:44.183Z,72.80
2022-11-25T12:06:13.292Z,72.70
2022-11-25T12:08:52.439Z,72.70
2022-11-25T12:11:34.906Z,73.10
2022-11-25T12:14:42.254Z,73.10
2022-11-25T12:17:25.785Z,73.30
2022-11-25T12:20:03.933Z,72.80
2022-11-25T12:22:44.318Z,72.80
2022-11-25T12:25:35.956Z,72.90
2022-11-25T12:28:07.893Z,73.30
2022-11-25T12:30:51.014Z,72.90
2022-11-25T12:33:43.372Z,72.70
2022-11-25T12:36:16.613Z,72.40
2022-11-25T12:39:01.175Z,72.20
2022-11-25T12:41:40.489Z,72.10
2022-11-25T12:44:34.816Z,72.20
2022-11-25T12:47:02.339Z,72.00
2022-11-25T12:49:32.955Z,71.60
2022-11-25T12:52:13.836Z,72.10
2022-11-25T12:54:59.378Z,72.20
2022-11-25T12:57:32.618Z,72.30
2022-11-25T13:00:41.115Z,72.60
2022-11-25T13:03:40.145Z,71.60
2022-11-25T13:06:38.561Z,71.70
2022-11-25T13:09:33.443Z,72.00
2022-11-25T13:12:09.219Z,72.20
2022-11-25T13:15:02.260Z,72.00
2022-11-25T13:17:32.567Z,72.30
2022-11-25T13:20:23.725Z,72.00
2022-11-25T13:23:19.557Z,71.80
2022-11-25T13:25:49.383Z,72.20
2022-11-25T13:28:34.650Z,72.00
2022-11-25T13:31:14.407Z,72.20
2022-11-25T13:33:44.999Z,72.20
2022-11-25T13:36:23.945Z,72.60
2022-11-25T13:38:51.116Z,72.80
2022-11-25T13:41:21.363Z,73.10
2022-11-25T13:44:14.799Z,73.30
2022-11-25T13:46:48.528Z,73.50
2022-11-25T13:49:28.531Z,73.60
2022-11-25T13:51:59.347Z,73.60
2022-11-25T13:55:00.487Z,74.30
2022-11-25T13:57:34.021Z,73.40
2022-11-25T14:00:10.193Z,73.40
2022-11-25T14:02:45.264Z,73.30
2022-11-25T14:05:42.387Z,73.10
2022-11-25T14:08:38.931Z,73.50
2022-11-25T14:11:09.284Z,73.40
2022-11-25T14:13:57.988Z,73.40
2022-11-25T14:17:02.183Z,73.50
2022-11-25T14:19:59.193Z,73.40
2022-11-25T14:22:51.297Z,73.30
2022-11-25T14:25:26.655Z,72.90
2022-11-25T14:28:45.921Z,72.80
2022-11-25T14:31:20.975Z,73.00
2022-11-25T14:33:54.170Z,73.20
2022-11-25T14:36:27.168Z,73.00
2022-11-25T14:39:00.728Z,73.00
2022-11-25T14:42:03.535Z,73.10
2022-11-25T14:44:45.155Z,73.10
2022-11-25T14:47:12.511Z,73.00
2022-11-25T14:50:11.803Z,73.20
2022-11-25T14:52:43.688Z,73.50
2022-11-25T14:55:11.917Z,73.90
2022-11-25T14:57:43.872Z,74.00
2022-11-25T15:00:17.538Z,74.30
2022-11-25T15:03:00.044Z,74.50
2022-11-25T15:05:32.209Z,74.50
2022-11-25T15:08:13.340Z,74.60
2022-11-25T15:10:44.738Z,74.80
2022-11-25T15:13:34.328Z,74.90
2022-11-25T15:16:23.118Z,75.10
2022-11-25T15:18:58.845Z,75.20
2022-11-25T15:22:00.072Z,75.20
2022-11-25T15:24:29.704Z,75.20
2022-11-25T15:27:00.203Z,75.40
2022-11-25T15:29:29.569Z,75.50
2022-11-25T15:31:59.266Z,75.60
2022-11-25T15:34:29.614Z,75.70
2022-11-25T15:37:02.111Z,75.90
2022-11-25T15:39:30.650Z,76.10
2022-11-25T15:42:24.931Z,76.20
2022-11-25T15:45:03.821Z,76.40
2022-11-25T15:47:36.458Z,76.50
2022-11-25T15:50:24.913Z,76.60
2022-11-25T15:52:55.624Z,76.80
2022-11-25T15:55:36.731Z,76.80
2022-11-25T15:58:30.730Z,77.00
2022-11-25T16:01:21.427Z,77.10
2022-11-25T16:03:50.820Z,77.20
2022-11-25T16:06:26.380Z,77.20
2022-11-25T16:09:01.382Z,77.40
2022-11-25T16:11:33.392Z,78.30
2022-11-25T16:14:27.012Z,77.50
2022-11-25T16:17:01.476Z,77.90
2022-11-25T16:19:49.207Z,77.80
2022-11-25T16:22:18.955Z,78.00
2022-11-25T16:24:50.414Z,77.90
2022-11-25T16:27:26.617Z,78.00
2022-11-25T16:29:57.678Z,78.10
2022-11-25T16:32:30.448Z,78.10
2022-11-25T16:35:12.954Z,78.20
2022-11-25T16:37:45.384Z,78.30
2022-11-25T16:40:18.543Z,78.20
2022-11-25T16:42:49.972Z,78.30
2022-11-25T16:45:26.903Z,78.30
2022-11-25T16:47:54.403Z,78.30
2022-11-25T16:50:22.707Z,78.30
2022-11-25T16:52:50.081Z,78.30
2022-11-25T16:55:18.660Z,78.30
2022-11-25T16:57:46.827Z,78.40
2022-11-25T17:00:17.036Z,78.40
2022-11-25T17:02:45.092Z,78.50
2022-11-25T17:05:24.161Z,78.40
2022-11-25T17:07:52.184Z,78.50
2022-11-25T17:10:21.367Z,78.40
2022-11-25T17:12:49.623Z,78.60
2022-11-25T17:15:21.183Z,78.70
2022-11-25T17:17:49.302Z,78.70
2022-11-25T17:20:21.477Z,78.70
2022-11-25T17:22:49.621Z,78.80
2022-11-25T17:25:17.702Z,78.70
2022-11-25T17:27:46.068Z,78.80
2022-11-25T17:30:20.959Z,78.80
2022-11-25T17:32:52.506Z,79.00
2022-11-25T17:35:20.849Z,78.90
2022-11-25T17:37:48.985Z,79.00
2022-11-25T17:40:17.193Z,79.00
2022-11-25T17:42:48.247Z,79.10
2022-11-25T17:45:21.638Z,79.10
2022-11-25T17:47:49.401Z,79.20
2022-11-25T17:50:23.149Z,79.20
2022-11-25T17:52:51.462Z,79.20
2022-11-25T17:55:21.595Z,79.20
2022-11-25T17:57:49.705Z,79.30
2022-11-25T18:00:20.031Z,79.20
2022-11-25T18:02:48.213Z,79.30
2022-11-25T18:05:21.870Z,79.30
2022-11-25T18:07:50.399Z,79.40
2022-11-25T18:10:21.710Z,79.40
2022-11-25T18:12:52.067Z,79.50
2022-11-25T18:15:23.217Z,79.50
2022-11-25T18:17:53.486Z,79.50
2022-11-25T18:20:23.849Z,79.50
2022-11-25T18:22:52.731Z,79.50
2022-11-25T18:25:27.099Z,79.60
2022-11-25T18:27:56.391Z,79.50
2022-11-25T18:30:27.150Z,79.50
2022-11-25T18:32:56.179Z,79.50
2022-11-25T18:35:35.688Z,79.50
2022-11-25T18:38:04.039Z,79.60
2022-11-25T18:40:32.238Z,79.60
2022-11-25T18:43:04.128Z,79.50
2022-11-25T18:45:39.445Z,79.60
2022-11-25T18:48:13.079Z,79.60
2022-11-25T18:50:40.547Z,79.50
2022-11-25T18:53:08.009Z,79.40
2022-11-25T18:55:35.452Z,79.40
2022-11-25T18:58:03.570Z,79.30
2022-11-25T19:00:33.074Z,79.30
2022-11-25T19:03:01.203Z,79.20
2022-11-25T19:05:31.644Z,79.30
2022-11-25T19:08:00.429Z,79.20
2022-11-25T19:10:31.038Z,79.20
2022-11-25T19:13:02.325Z,79.20
2022-11-25T19:15:31.194Z,79.30
2022-11-25T19:18:01.333Z,79.20
2022-11-25T19:20:30.154Z,79.20
2022-11-25T19:23:01.173Z,79.10
2022-11-25T19:25:29.292Z,79.10
2022-11-25T19:27:59.615Z,79.10
2022-11-25T19:30:31.718Z,79.10
2022-11-25T19:33:01.309Z,79.10
2022-11-25T19:35:38.374Z,79.10
2022-11-25T19:38:16.364Z,79.10
2022-11-25T19:40:43.806Z,79.10
2022-11-25T19:43:11.262Z,79.10
2022-11-25T19:45:38.787Z,79.10
2022-11-25T19:48:11.347Z,79.10
2022-11-25T19:50:40.063Z,79.10
2022-11-25T19:53:16.710Z,79.10
2022-11-25T19:55:44.869Z,79.10
2022-11-25T19:58:12.845Z,79.10
2022-11-25T20:00:42.571Z,79.10
2022-11-25T20:03:24.335Z,79.30
2022-11-25T20:05:54.383Z,79.30
2022-11-25T20:08:24.731Z,79.30
2022-11-25T20:10:52.393Z,79.30
2022-11-25T20:13:20.821Z,79.40
2022-11-25T20:15:48.702Z,79.30
2022-11-25T20:18:20.459Z,79.40
2022-11-25T20:20:53.764Z,79.40
2022-11-25T20:23:28.563Z,79.30
2022-11-25T20:25:56.345Z,79.30
2022-11-25T20:28:30.078Z,79.20
2022-11-25T20:31:01.029Z,79.20
2022-11-25T20:33:28.506Z,79.10
2022-11-25T20:36:06.998Z,79.10
2022-11-25T20:38:36.127Z,79.10
2022-11-25T20:41:04.289Z,79.10
2022-11-25T20:43:36.628Z,79.10
2022-11-25T20:46:05.493Z,79.20
2022-11-25T20:48:35.187Z,79.10
2022-11-25T20:51:03.579Z,79.10
2022-11-25T20:53:32.273Z,79.10
2022-11-25T20:56:00.126Z,79.10
2022-11-25T20:58:32.014Z,79.20
2022-11-25T21:00:59.895Z,79.30
2022-11-25T21:03:27.422Z,79.30
2022-11-25T21:05:55.810Z,79.20
2022-11-25T21:08:28.007Z,79.30
2022-11-25T21:10:56.922Z,79.30
2022-11-25T21:13:30.043Z,79.30
2022-11-25T21:15:57.595Z,79.30
2022-11-25T21:18:25.052Z,79.30
2022-11-25T21:20:55.338Z,79.40
2022-11-25T21:23:27.361Z,79.50
2022-11-25T21:26:00.591Z,79.50
2022-11-25T21:28:28.165Z,79.60
2022-11-25T21:30:55.670Z,79.60
2022-11-25T21:33:23.320Z,79.60
2022-11-25T21:35:50.875Z,79.60
2022-11-25T21:38:24.570Z,79.60
2022-11-25T21:40:54.167Z,79.70
2022-11-25T21:43:25.935Z,79.70
2022-11-25T21:46:03.820Z,79.70
2022-11-25T21:48:31.771Z,79.70
2022-11-25T21:50:59.665Z,79.70
2022-11-25T21:53:27.170Z,79.60
2022-11-25T21:55:55.006Z,79.70
2022-11-25T21:58:28.750Z,79.70
2022-11-25T22:01:01.737Z,79.60
2022-11-25T22:03:31.084Z,79.60
2022-11-25T22:05:58.498Z,79.60
2022-11-25T22:08:25.917Z,79.60
2022-11-25T22:10:55.098Z,79.60
2022-11-25T22:13:28.912Z,79.60
2022-11-25T22:15:58.348Z,79.60
2022-11-25T22:18:34.684Z,79.50
2022-11-25T22:21:03.235Z,79.60
2022-11-25T22:23:30.641Z,79.50
2022-11-25T22:25:58.838Z,79.60
2022-11-25T22:28:28.653Z,79.60
2022-11-25T22:31:02.314Z,79.60
2022-11-25T22:33:35.005Z,79.70
2022-11-25T22:36:02.818Z,79.70
2022-11-25T22:38:30.907Z,79.70
2022-11-25T22:41:01.604Z,79.70
2022-11-25T22:43:36.106Z,79.70
2022-11-25T22:46:04.666Z,79.80
2022-11-25T22:48:35.029Z,79.80
2022-11-25T22:51:02.955Z,79.80
2022-11-25T22:53:30.530Z,79.80
2022-11-25T22:55:58.472Z,79.80
2022-11-25T22:58:27.582Z,79.80
2022-11-25T23:00:56.397Z,79.80
2022-11-25T23:03:29.120Z,79.80
2022-11-25T23:05:56.946Z,79.80
2022-11-25T23:08:27.197Z,79.80
2022-11-25T23:10:55.634Z,79.80
2022-11-25T23:13:23.569Z,79.70
2022-11-25T23:15:55.087Z,79.80
2022-11-25T23:18:27.648Z,79.70
2022-11-25T23:20:55.479Z,79.70
2022-11-25T23:23:26.993Z,79.70
2022-11-25T23:25:55.351Z,79.80
2022-11-25T23:28:23.733Z,79.80
2022-11-25T23:30:52.922Z,79.80
2022-11-25T23:33:29.331Z,79.70
2022-11-25T23:35:58.296Z,79.80
2022-11-25T23:38:28.685Z,79.70
2022-11-25T23:40:56.074Z,79.70
2022-11-25T23:43:23.555Z,79.60
2022-11-25T23:45:53.664Z,79.70
2022-11-25T23:48:24.088Z,79.60
2022-11-25T23:50:53.795Z,79.60
2022-11-25T23:53:32.908Z,79.70
2022-11-25T23:56:00.332Z,79.80
2022-11-25T23:58:27.841Z,79.70
